Bella Vista, California
Current Conditions -  °F | °C
As of 7:53 AM on Sunday 21 Dec 2014 (Local Time) from KRDD Reporting Station
Haze Haze  
Wind Chill: 53°   Ceiling: 500
Heat Index: 53°   Visibility: 5mi
Dew Point: 53°   Wind: 0mph
Humidity: 100%   Direction: NA
Pressure: 30.24"   Gusts: NA
Location:  40.64°N, 122.23°W
Report Text: KRDD 211553Z 00000KT 5SM BR OVC005 12/12 A3024 RMK AO2 SLP237 P0001 T01170117
Loading
Personal Weather Stations






























Interactive Weather Map New forecast layout! Learn more

10-Day Weather Forecast

Advertisements
Track Severe Weather on mobile